Detall de PIREP

Printer-friendly versionPDF version

[2014/11/03 21:38:00]
Flight IATA:CT1004
Pilot Number:037
Company ICAO:CAT
Aircraft Type:B752/E
PAX:95
Aircraft Registration:PAX
Departing Airport: LEVC
Destination Airport: LFPG
Alternate Airport:EHRD
Online: VATSIM
Route:SOPET UN608 GIROM UN863 AGN UL873 FOUCO UT181 POI UT182 PEPAX/N410F300 UT182 KEPER
Flight Level:F370
No Slew and time accel
No pause
Crash detect
Detect pilot in Cockpit between each 30 and 45 minutes
21:38 Zero fuel Weight: 154671 Lbs, Fuel Weight: 24444 Lbs
21:38 VATSIM:LEVC 032130Z 23008KT CAVOK 20/08 Q1007 NOSIG
21:38 VATSIM:LFPG 032130Z 19006G18KT 9999 -RA FEW008 SCT040 BKN056 10/09 Q0993 NOSIG
21:40 Parking Brakes off
21:49 Take-off
21:49 Take off Weight: 178250 Lbs
21:49 Wind: 233º @ 008 Knots Heading: 293º
21:49 POS N39º 29´ 23´´ W000º 29´ 00´´
21:49 Flaps:2 at 188 Knots
21:49 Gear Up: 204 Knots
21:49 Flaps:1 at 225 Knots
21:49 Flaps:0at 215 Knots
22:04 Wind:210º@037 Knots Heading: 012º Ground Speed: 484 Knots Altitude 35285 ft
22:04 TOC
22:04 Fuel Weight: 19721 Lb
22:19 Wind:119º@008 Knots Heading: 015º Ground Speed: 471 Knots Altitude 36617 ft
22:34 Wind:179º@026 Knots Heading: 351º Ground Speed: 495 Knots Altitude 36548 ft
22:49 Wind:170º@016 Knots Heading: 013º Ground Speed: 473 Knots Altitude 36433 ft
22:53 TOD
22:53 Fuel Weight: 13112 Lb
23:04 Wind:173º@013 Knots Heading: 036º Ground Speed: 328 Knots Altitude 19832 ft
23:16 Flaps:1 at 220 Knots
23:19 Wind:200º@008 Knots Heading: 046º Ground Speed: 233 Knots Altitude 3996 ft
23:20 Flaps:2 at 191 Knots
23:28 Flaps:3 at 171 Knots
23:30 Flaps:4 at 171 Knots
23:30 Gear Down: 172 Knots
23:30 Flaps:5 at 175 Knots
23:30 Flaps:6 at 178 Knots
23:31 TouchDown:Rate -214 ft/min Speed: 141 Knots
23:31 VATSIM:LFPG 032300Z 21005KT 180V240 9000 -RASCT006 SCT013 BKN050 10/09 Q0993 NOSIG
23:31 Land
23:31 Wind:209º@005 Knots
23:31 Heading: 263º
23:31 Flight Duration: 01:42
23:31 Landing Weight: 164906 Lbs
23:31 POS N48º 59´ 45´´ E002º 33´ 30´´
23:35 Parking brakes on
23:35 Block to Block Duration: 01:55
23:35 Final Fuel: 9918 Lbls
23:35 Spent Fuel: 14526 Lbls
23:35 Flight Length: 666 NM
23:35 TOD Land Length: 169 NM

Exportar CSV

Powered by Drupal - Modified by Danger4k